createdAt,value
2023-01-20T00:01:56.575Z,8.60
2023-01-20T00:05:39.246Z,8.63
2023-01-20T00:09:23.314Z,8.53
2023-01-20T00:13:05.995Z,8.80
2023-01-20T00:16:48.683Z,8.47
2023-01-20T00:20:31.348Z,7.50
2023-01-20T00:24:14.083Z,8.20
2023-01-20T00:28:01.096Z,7.63
2023-01-20T00:31:43.873Z,8.30
2023-01-20T00:35:26.604Z,7.27
2023-01-20T00:39:09.313Z,7.20
2023-01-20T00:42:52.037Z,5.80
2023-01-20T00:46:36.208Z,6.90
2023-01-20T00:50:18.997Z,6.23
2023-01-20T00:54:01.741Z,6.07
2023-01-20T00:57:44.377Z,6.53
2023-01-20T01:01:27.113Z,5.80
2023-01-20T01:05:11.520Z,5.80
2023-01-20T01:08:54.537Z,5.77
2023-01-20T01:12:37.284Z,5.47
2023-01-20T01:16:20.251Z,5.30
2023-01-20T01:20:03.525Z,5.90
2023-01-20T01:23:47.724Z,6.00
2023-01-20T01:27:30.687Z,5.63
2023-01-20T01:31:13.402Z,4.90
2023-01-20T01:34:56.112Z,5.50
2023-01-20T01:38:38.782Z,4.93
2023-01-20T01:42:25.668Z,5.03
2023-01-20T01:46:08.479Z,4.60
2023-01-20T01:49:51.148Z,5.13
2023-01-20T01:53:37.855Z,4.80
2023-01-20T01:57:22.076Z,5.23
2023-01-20T02:01:05.249Z,4.70
2023-01-20T02:04:48.666Z,5.10
2023-01-20T02:08:32.837Z,5.07
2023-01-20T02:12:17.407Z,4.90
2023-01-20T02:16:06.057Z,5.20
2023-01-20T02:20:06.674Z,5.50
2023-01-20T02:24:08.923Z,5.40
2023-01-20T02:28:13.233Z,4.80
2023-01-20T02:32:13.179Z,4.93
2023-01-20T02:35:58.300Z,4.97
2023-01-20T02:39:44.473Z,4.70
2023-01-20T02:43:32.614Z,5.30
2023-01-20T02:47:20.503Z,5.00
2023-01-20T02:51:07.665Z,5.27
2023-01-20T02:54:52.550Z,5.37
2023-01-20T02:58:38.813Z,4.97
2023-01-20T03:02:25.643Z,4.77
2023-01-20T03:06:11.556Z,5.23
2023-01-20T03:09:57.188Z,5.10
2023-01-20T03:13:44.838Z,4.70
2023-01-20T03:17:28.893Z,5.00
2023-01-20T03:21:15.109Z,5.00
2023-01-20T03:24:58.125Z,4.57
2023-01-20T03:28:42.409Z,4.70
2023-01-20T03:32:26.922Z,4.87
2023-01-20T03:36:11.152Z,4.10
2023-01-20T03:39:53.904Z,4.07
2023-01-20T03:43:42.394Z,4.10
2023-01-20T03:47:30.248Z,4.40
2023-01-20T03:51:19.597Z,4.50
2023-01-20T03:55:05.872Z,4.40
2023-01-20T03:58:51.616Z,4.30
2023-01-20T04:02:34.605Z,4.87
2023-01-20T04:06:20.499Z,4.63
2023-01-20T04:10:07.074Z,5.03
2023-01-20T04:13:52.605Z,4.20
2023-01-20T04:17:35.488Z,3.90
2023-01-20T04:21:24.565Z,4.70
2023-01-20T04:25:13.191Z,4.70
2023-01-20T04:28:56.046Z,5.13
2023-01-20T04:32:38.765Z,5.67
2023-01-20T04:36:22.740Z,5.67
2023-01-20T04:40:06.028Z,6.60
2023-01-20T04:43:48.799Z,6.93
2023-01-20T04:47:31.685Z,6.90
2023-01-20T04:51:15.125Z,7.23
2023-01-20T04:54:59.140Z,7.03
2023-01-20T04:58:42.439Z,7.27
2023-01-20T05:02:25.312Z,7.50
2023-01-20T05:06:08.175Z,6.93
2023-01-20T05:09:50.819Z,7.70
2023-01-20T05:13:38.525Z,7.13
2023-01-20T05:17:21.220Z,7.63
2023-01-20T05:21:05.524Z,8.30
2023-01-20T05:24:48.185Z,8.00
2023-01-20T05:28:31.175Z,8.40
2023-01-20T05:32:15.221Z,8.43
2023-01-20T05:35:57.906Z,8.33
2023-01-20T05:39:40.597Z,8.10
2023-01-20T05:43:23.274Z,8.70
2023-01-20T05:47:06.041Z,8.20
2023-01-20T05:50:50.318Z,9.73
2023-01-20T05:54:32.996Z,9.40
2023-01-20T05:58:16.095Z,9.33
2023-01-20T06:01:58.990Z,8.53
2023-01-20T06:05:41.722Z,8.73
2023-01-20T06:09:25.823Z,8.67
2023-01-20T06:13:11.963Z,8.27
2023-01-20T06:16:55.307Z,7.67
2023-01-20T06:20:37.923Z,6.53
2023-01-20T06:24:20.611Z,6.67
2023-01-20T06:28:04.832Z,6.83
2023-01-20T06:31:47.785Z,6.70
2023-01-20T06:35:30.668Z,6.33
2023-01-20T06:39:13.795Z,6.90
2023-01-20T06:42:58.687Z,7.40
2023-01-20T06:46:47.977Z,7.10
2023-01-20T06:50:30.945Z,7.00
2023-01-20T06:54:13.610Z,7.17
2023-01-20T06:57:56.276Z,7.43
2023-01-20T07:01:39.463Z,7.33
2023-01-20T07:05:23.553Z,7.90
2023-01-20T07:09:07.673Z,7.77
2023-01-20T07:12:50.373Z,8.03
2023-01-20T07:16:33.717Z,7.90
2023-01-20T07:20:16.567Z,7.93
2023-01-20T07:24:02.534Z,8.20
2023-01-20T07:27:45.219Z,8.50
2023-01-20T07:31:29.363Z,10.80
2023-01-20T07:35:12.421Z,8.90
2023-01-20T07:38:55.501Z,9.17
2023-01-20T07:42:39.539Z,10.13
2023-01-20T07:46:22.625Z,9.43
2023-01-20T07:50:06.095Z,9.80
2023-01-20T07:53:50.928Z,8.83
2023-01-20T07:57:33.621Z,9.33
2023-01-20T08:01:20.423Z,9.07
2023-01-20T08:05:03.151Z,9.03
2023-01-20T08:08:45.843Z,9.53
2023-01-20T08:12:29.335Z,9.73
2023-01-20T08:16:13.764Z,9.80
2023-01-20T08:19:57.798Z,8.97
2023-01-20T08:23:41.876Z,8.93
2023-01-20T08:27:24.557Z,8.80
2023-01-20T08:31:09.406Z,9.23
2023-01-20T08:34:52.924Z,9.10
2023-01-20T08:38:40.265Z,9.27
2023-01-20T08:42:27.441Z,10.03
2023-01-20T08:46:16.125Z,10.20
2023-01-20T08:50:05.427Z,9.93
2023-01-20T08:53:50.163Z,9.73
2023-01-20T08:57:32.904Z,10.20
2023-01-20T09:01:17.446Z,9.90
2023-01-20T09:05:00.145Z,9.70
2023-01-20T09:08:42.942Z,10.00
2023-01-20T09:12:27.069Z,9.83
2023-01-20T09:16:10.240Z,9.07
2023-01-20T09:19:52.916Z,8.50
2023-01-20T09:23:37.092Z,8.07
2023-01-20T09:27:19.760Z,7.93
2023-01-20T09:31:07.925Z,8.57
2023-01-20T09:34:50.665Z,7.50
2023-01-20T09:38:51.175Z,6.80
2023-01-20T09:42:59.588Z,6.33
2023-01-20T09:47:12.781Z,6.40
2023-01-20T09:51:15.081Z,6.57
2023-01-20T09:55:00.607Z,7.17
2023-01-20T09:58:47.594Z,6.60
2023-01-20T10:02:34.984Z,5.70
2023-01-20T10:06:24.823Z,5.50
2023-01-20T10:10:13.095Z,6.00
2023-01-20T10:13:59.881Z,5.70
2023-01-20T10:17:48.613Z,5.90
2023-01-20T10:21:35.478Z,6.17
2023-01-20T10:25:22.515Z,5.93
2023-01-20T10:29:08.985Z,5.20
2023-01-20T10:32:56.886Z,4.77
2023-01-20T10:36:40.210Z,4.37
2023-01-20T10:40:35.228Z,3.13
2023-01-20T10:44:18.059Z,3.70
2023-01-20T10:48:10.283Z,3.77
2023-01-20T10:52:02.762Z,3.67
2023-01-20T10:55:58.013Z,3.90
2023-01-20T10:59:44.240Z,4.83
2023-01-20T11:03:28.923Z,5.30
2023-01-20T11:07:16.966Z,4.63
2023-01-20T11:11:01.043Z,4.10
2023-01-20T11:14:44.308Z,4.30
2023-01-20T11:18:33.876Z,4.83
2023-01-20T11:22:20.789Z,4.80
2023-01-20T11:26:10.064Z,4.70
2023-01-20T11:29:56.607Z,4.57
2023-01-20T11:33:40.666Z,5.13
2023-01-20T11:37:26.578Z,5.33
2023-01-20T11:41:21.658Z,4.90
2023-01-20T11:45:20.941Z,5.20
2023-01-20T11:49:16.987Z,5.53
2023-01-20T11:53:14.650Z,5.87
2023-01-20T11:57:00.891Z,5.50
2023-01-20T12:00:44.985Z,6.13
2023-01-20T12:04:52.837Z,6.63
2023-01-20T12:08:43.411Z,5.80
2023-01-20T12:12:32.965Z,6.90
2023-01-20T12:16:16.469Z,6.87
2023-01-20T12:20:16.421Z,7.53
2023-01-20T12:24:03.178Z,7.50
2023-01-20T12:27:50.097Z,7.57
2023-01-20T12:31:35.892Z,7.43
2023-01-20T12:35:21.849Z,8.27
2023-01-20T12:39:25.105Z,8.13
2023-01-20T12:43:30.081Z,9.50
2023-01-20T12:47:19.672Z,9.43
2023-01-20T12:51:12.990Z,10.47
2023-01-20T12:55:23.654Z,11.87
2023-01-20T12:59:11.694Z,10.73
2023-01-20T13:03:08.394Z,11.10
2023-01-20T13:07:04.250Z,11.43
2023-01-20T13:10:57.326Z,11.43
2023-01-20T13:14:43.052Z,11.23
2023-01-20T13:18:29.336Z,11.23
2023-01-20T13:22:16.351Z,12.20
2023-01-20T13:25:59.813Z,11.90
2023-01-20T13:29:44.798Z,12.03
2023-01-20T13:33:34.076Z,11.90
2023-01-20T13:37:33.014Z,12.13
2023-01-20T13:41:50.498Z,11.73
2023-01-20T13:45:33.237Z,12.90
2023-01-20T13:49:26.670Z,12.80
2023-01-20T13:53:27.958Z,13.13
2023-01-20T13:57:38.437Z,13.27
2023-01-20T14:01:23.940Z,14.00
2023-01-20T14:05:24.917Z,13.27
2023-01-20T14:09:12.993Z,13.53
2023-01-20T14:12:55.688Z,13.13
2023-01-20T14:16:39.696Z,12.87
2023-01-20T14:20:24.688Z,12.97
2023-01-20T14:24:22.331Z,13.07
2023-01-20T14:28:19.213Z,13.87
2023-01-20T14:32:01.925Z,12.63
2023-01-20T14:35:44.966Z,13.60
2023-01-20T14:39:28.801Z,13.50
2023-01-20T14:43:19.532Z,14.37
2023-01-20T14:47:03.337Z,14.33
2023-01-20T14:50:49.752Z,14.30
2023-01-20T14:54:37.446Z,13.53
2023-01-20T14:58:21.383Z,14.07
2023-01-20T15:02:07.056Z,14.10
2023-01-20T15:05:56.195Z,14.10
2023-01-20T15:09:43.110Z,14.83
2023-01-20T15:13:31.116Z,14.87
2023-01-20T15:17:17.680Z,14.00
2023-01-20T15:21:17.222Z,15.33
2023-01-20T15:25:07.319Z,15.30
2023-01-20T15:28:51.467Z,15.43
2023-01-20T15:32:34.161Z,14.10
2023-01-20T15:36:25.114Z,15.37
2023-01-20T15:40:15.217Z,13.87
2023-01-20T15:43:59.404Z,14.03
2023-01-20T15:47:42.607Z,15.47
2023-01-20T15:51:26.082Z,14.77
2023-01-20T15:55:11.935Z,15.13
2023-01-20T15:58:54.931Z,14.73
2023-01-20T16:02:39.042Z,15.33
2023-01-20T16:06:22.501Z,14.10
2023-01-20T16:10:05.535Z,14.60
2023-01-20T16:13:48.195Z,15.67
2023-01-20T16:17:32.464Z,14.53
2023-01-20T16:21:17.772Z,15.10
2023-01-20T16:25:00.431Z,15.13
2023-01-20T16:28:46.021Z,15.33
2023-01-20T16:32:28.683Z,15.00
2023-01-20T16:36:16.384Z,15.47
2023-01-20T16:40:00.654Z,16.50
2023-01-20T16:43:43.511Z,15.77
2023-01-20T16:47:26.192Z,15.70
2023-01-20T16:51:08.893Z,17.07
2023-01-20T16:54:51.619Z,16.53
2023-01-20T16:58:35.647Z,17.07
2023-01-20T17:02:18.378Z,15.73
2023-01-20T17:06:01.035Z,16.30
2023-01-20T17:09:43.877Z,15.70
2023-01-20T17:13:26.555Z,15.77
2023-01-20T17:17:10.630Z,16.57
2023-01-20T17:20:53.332Z,16.57
2023-01-20T17:24:36.006Z,17.33
2023-01-20T17:28:18.706Z,17.17
2023-01-20T17:32:01.507Z,17.07
2023-01-20T17:35:47.185Z,16.37
2023-01-20T17:39:29.903Z,16.60
2023-01-20T17:43:12.589Z,18.27
2023-01-20T17:46:55.287Z,17.93
2023-01-20T17:50:38.895Z,17.80
2023-01-20T17:54:22.914Z,17.50
2023-01-20T17:58:05.550Z,17.10
2023-01-20T18:01:52.201Z,18.47
2023-01-20T18:05:35.831Z,18.63
2023-01-20T18:09:18.451Z,17.43
2023-01-20T18:13:02.513Z,17.87
2023-01-20T18:16:45.219Z,17.77
2023-01-20T18:20:28.211Z,18.67
2023-01-20T18:24:12.617Z,19.13
2023-01-20T18:27:55.385Z,18.07
2023-01-20T18:31:39.867Z,17.90
2023-01-20T18:35:22.639Z,16.67
2023-01-20T18:39:07.081Z,17.37
2023-01-20T18:42:49.714Z,16.57
2023-01-20T18:46:32.406Z,16.97
2023-01-20T18:50:17.926Z,15.47
2023-01-20T18:54:02.221Z,15.77
2023-01-20T18:57:44.979Z,15.20
2023-01-20T19:01:29.737Z,15.37
2023-01-20T19:05:12.403Z,16.53
2023-01-20T19:08:57.323Z,15.93
2023-01-20T19:12:39.979Z,15.30
2023-01-20T19:16:24.141Z,14.90
2023-01-20T19:20:08.054Z,15.37
2023-01-20T19:23:51.149Z,15.93
2023-01-20T19:27:35.156Z,16.70
2023-01-20T19:31:19.564Z,16.20
2023-01-20T19:35:02.237Z,14.77
2023-01-20T19:38:45.073Z,15.07
2023-01-20T19:42:27.717Z,16.57
2023-01-20T19:46:13.026Z,16.00
2023-01-20T19:49:55.683Z,16.53
2023-01-20T19:53:38.409Z,15.87
2023-01-20T19:57:21.100Z,15.83
2023-01-20T20:01:07.512Z,15.37
2023-01-20T20:04:51.539Z,15.17
2023-01-20T20:08:36.177Z,15.93
2023-01-20T20:12:18.857Z,15.93
2023-01-20T20:16:02.763Z,14.60
2023-01-20T20:19:45.487Z,14.90
2023-01-20T20:23:29.873Z,14.13
2023-01-20T20:27:12.604Z,14.67
2023-01-20T20:30:56.454Z,15.20
2023-01-20T20:34:39.198Z,16.33
2023-01-20T20:38:21.908Z,14.90
2023-01-20T20:42:05.994Z,15.03
2023-01-20T20:45:48.737Z,14.27
2023-01-20T20:49:31.927Z,14.40
2023-01-20T20:53:14.613Z,13.50
2023-01-20T20:56:57.286Z,14.33
2023-01-20T21:00:44.934Z,14.97
2023-01-20T21:04:27.629Z,15.13
2023-01-20T21:08:10.268Z,15.43
2023-01-20T21:11:52.953Z,15.03
2023-01-20T21:15:35.780Z,15.27
2023-01-20T21:19:19.848Z,14.53
2023-01-20T21:23:03.394Z,15.27
2023-01-20T21:26:46.168Z,15.70
2023-01-20T21:30:28.925Z,14.50
2023-01-20T21:34:14.472Z,16.00
2023-01-20T21:37:58.547Z,13.93
2023-01-20T21:41:41.585Z,15.83
2023-01-20T21:45:24.305Z,15.50
2023-01-20T21:49:25.077Z,15.20
2023-01-20T21:53:09.146Z,14.70
2023-01-20T21:56:52.388Z,14.23
2023-01-20T22:00:35.090Z,15.03
2023-01-20T22:04:18.231Z,15.80
2023-01-20T22:08:01.278Z,14.57
2023-01-20T22:11:45.281Z,15.67
2023-01-20T22:15:28.245Z,14.77
2023-01-20T22:19:13.001Z,15.63
2023-01-20T22:22:55.842Z,15.17
2023-01-20T22:26:38.546Z,15.33
2023-01-20T22:30:25.289Z,15.67
2023-01-20T22:34:09.203Z,15.23
2023-01-20T22:37:56.211Z,15.57
2023-01-20T22:41:38.967Z,15.40
2023-01-20T22:45:23.100Z,14.67
2023-01-20T22:49:05.932Z,16.00
2023-01-20T22:52:48.658Z,15.33
2023-01-20T22:56:33.555Z,14.43
2023-01-20T23:00:17.497Z,15.13
2023-01-20T23:04:03.374Z,15.17
2023-01-20T23:07:46.070Z,14.90
2023-01-20T23:11:29.066Z,15.97
2023-01-20T23:15:11.961Z,14.67
2023-01-20T23:18:57.277Z,14.07
2023-01-20T23:22:41.421Z,16.03
2023-01-20T23:26:25.380Z,15.10
2023-01-20T23:30:10.179Z,16.33
2023-01-20T23:33:54.557Z,14.70
2023-01-20T23:37:37.355Z,14.60
2023-01-20T23:41:21.572Z,14.33
2023-01-20T23:45:04.499Z,15.63
2023-01-20T23:48:47.551Z,17.17
2023-01-20T23:52:30.350Z,15.57
2023-01-20T23:56:15.475Z,16.23
2023-01-20T23:59:59.497Z,16.60
